Time;durP1;ratioP1;P1;durP2;ratioP2;P2;SDS_P1;SDS_P2;PMS_P1;PMS_P2;Temp;Humidity;BMP_temperature;BMP_pressure;BME280_temperature;BME280_humidity;BME280_pressure;Samples;Min_cycle;Max_cycle;Signal;HPM_P1;HPM_P2
2024/01/02 00:02:16;;;;;;;11.60;2.10;;;;;;;9.73;67.87;99996.84;5043196;28;20065;-68
2024/01/02 00:04:44;;;;;;;8.60;3.00;;;;;;;9.72;67.77;99987.16;5040040;28;20125;-67
2024/01/02 00:07:12;;;;;;;12.95;2.42;;;;;;;9.71;67.78;99980.16;5040238;28;20044;-67
2024/01/02 00:09:40;;;;;;;10.05;2.42;;;;;;;9.72;67.94;99975.59;5075324;28;20042;-67
2024/01/02 00:12:07;;;;;;;6.68;1.92;;;;;;;9.72;68.40;99975.59;5019012;28;20085;-68
2024/01/02 00:14:35;;;;;;;11.20;2.63;;;;;;;9.73;67.96;99977.22;5015947;28;20050;-68
2024/01/02 00:17:04;;;;;;;4.45;1.55;;;;;;;9.71;68.15;99964.06;5010142;28;20061;-67
2024/01/02 00:19:33;;;;;;;7.47;1.85;;;;;;;9.71;68.00;99952.50;5009635;28;20098;-67
2024/01/02 00:22:01;;;;;;;4.07;1.60;;;;;;;9.71;68.47;99945.28;5017340;28;20052;-65
2024/01/02 00:24:29;;;;;;;5.03;1.73;;;;;;;9.71;68.33;99931.88;5025856;28;20046;-68
2024/01/02 00:26:56;;;;;;;9.25;1.90;;;;;;;9.71;68.43;99907.72;5003699;28;20047;-68
2024/01/02 00:29:24;;;;;;;5.97;1.92;;;;;;;9.70;68.22;99898.03;5018445;28;20039;-68
2024/01/02 00:31:52;;;;;;;11.02;2.60;;;;;;;9.73;68.70;99894.06;5020467;28;20131;-68
2024/01/02 00:34:20;;;;;;;7.03;1.77;;;;;;;9.72;68.31;99871.78;5022852;28;20140;-68
2024/01/02 00:36:49;;;;;;;11.13;1.65;;;;;;;9.73;68.39;99861.88;5015439;28;20085;-68
2024/01/02 00:39:17;;;;;;;7.60;1.60;;;;;;;9.70;68.48;99838.19;5007473;28;20386;-69
2024/01/02 00:41:45;;;;;;;2.63;1.10;;;;;;;9.70;68.50;99822.91;5007146;28;20057;-69
2024/01/02 00:44:13;;;;;;;6.03;1.92;;;;;;;9.71;68.79;99810.31;5011542;28;20049;-68
2024/01/02 00:46:40;;;;;;;8.80;1.65;;;;;;;9.69;68.98;99793.66;5020736;28;20386;-68
2024/01/02 00:49:08;;;;;;;3.80;1.23;;;;;;;9.69;68.58;99773.00;5021914;28;20091;-68
2024/01/02 00:51:36;;;;;;;4.80;1.52;;;;;;;9.69;69.01;99762.25;5011997;28;20046;-68
2024/01/02 00:54:05;;;;;;;10.18;2.22;;;;;;;9.68;68.64;99760.63;5009884;28;20082;-68
2024/01/02 00:56:33;;;;;;;6.13;1.35;;;;;;;9.72;68.85;99742.19;5017121;28;20076;-68
2024/01/02 00:59:01;;;;;;;5.25;2.00;;;;;;;9.72;69.05;99752.91;5015397;28;20341;-68
2024/01/02 01:01:29;;;;;;;4.30;1.48;;;;;;;9.70;68.81;99737.06;5018825;28;20069;-68
2024/01/02 01:03:57;;;;;;;4.45;1.23;;;;;;;9.69;69.16;99731.94;5027069;28;20060;-67
2024/01/02 01:06:25;;;;;;;2.90;1.10;;;;;;;9.68;68.64;99725.75;5022746;28;20134;-68
2024/01/02 01:08:53;;;;;;;3.22;1.00;;;;;;;9.68;69.22;99715.03;5021538;28;20050;-67
2024/01/02 01:11:22;;;;;;;2.00;0.93;;;;;;;9.68;69.29;99708.84;5019930;28;20558;-68
2024/01/02 01:13:50;;;;;;;5.78;1.77;;;;;;;9.67;69.31;99705.34;5026176;28;20056;-68
2024/01/02 01:16:18;;;;;;;4.38;1.20;;;;;;;9.68;69.05;99698.94;5015503;28;20050;-67
2024/01/02 01:18:45;;;;;;;4.05;1.10;;;;;;;9.67;69.42;99697.31;5022150;28;20054;-68
2024/01/02 01:21:13;;;;;;;3.72;1.00;;;;;;;9.66;69.45;99682.28;5021132;28;20049;-68
2024/01/02 01:23:41;;;;;;;4.38;1.13;;;;;;;9.68;69.22;99673.97;5016392;28;20053;-68
2024/01/02 01:26:09;;;;;;;2.38;0.82;;;;;;;9.71;69.19;99666.25;5018499;28;20050;-67
2024/01/02 01:28:38;;;;;;;2.58;0.77;;;;;;;9.70;69.20;99650.41;5021488;28;20077;-67
2024/01/02 01:31:06;;;;;;;5.10;1.10;;;;;;;9.69;69.53;99651.47;5021942;28;20054;-67
2024/01/02 01:33:34;;;;;;;2.85;1.02;;;;;;;9.71;69.65;99646.66;5021084;28;20085;-68
2024/01/02 01:36:02;;;;;;;1.30;0.75;;;;;;;9.71;69.40;99622.50;5027638;28;20498;-68
2024/01/02 01:38:30;;;;;;;1.95;1.00;;;;;;;9.70;69.59;99612.84;5021705;28;20073;-68
2024/01/02 01:40:58;;;;;;;2.53;0.77;;;;;;;9.70;69.47;99604.78;5020712;28;20054;-67
2024/01/02 01:43:26;;;;;;;0.43;0.40;;;;;;;9.70;69.25;99599.44;5020846;28;20064;-67
2024/01/02 01:45:55;;;;;;;2.83;0.70;;;;;;;9.69;69.36;99590.56;5007432;28;20147;-68
2024/01/02 01:48:23;;;;;;;3.58;0.63;;;;;;;9.68;69.40;99582.75;5021331;28;20053;-68
2024/01/02 01:50:52;;;;;;;2.22;0.70;;;;;;;9.67;69.04;99563.16;5021051;28;20038;-67
2024/01/02 01:53:20;;;;;;;2.50;0.65;;;;;;;9.66;69.76;99548.13;5011486;28;20110;-67
2024/01/02 01:55:49;;;;;;;2.28;1.10;;;;;;;9.67;69.44;99547.06;5022644;28;20320;-67
2024/01/02 01:58:18;;;;;;;1.42;1.00;;;;;;;9.66;69.61;99541.97;5015469;28;20119;-68
2024/01/02 02:00:46;;;;;;;0.70;0.60;;;;;;;9.65;69.59;99530.41;5025470;28;20048;-68
2024/01/02 02:03:18;;;;;;;1.83;0.80;;;;;;;9.67;69.82;99522.13;5038612;28;20049;-68
2024/01/02 02:05:46;;;;;;;0.40;0.40;;;;;;;9.66;69.88;99507.09;5021971;28;20058;-68
2024/01/02 02:08:14;;;;;;;2.40;1.27;;;;;;;9.67;69.75;99497.97;5005701;28;20109;-68
2024/01/02 02:10:42;;;;;;;0.85;0.60;;;;;;;9.66;69.83;99497.16;5001607;28;20046;-67
2024/01/02 02:13:10;;;;;;;1.48;0.63;;;;;;;9.67;69.65;99493.44;5004284;28;20118;-67
2024/01/02 02:15:41;;;;;;;2.72;0.50;;;;;;;9.65;69.93;99489.38;5018162;28;20079;-67
2024/01/02 02:18:10;;;;;;;1.73;0.80;;;;;;;9.68;70.04;99488.88;5007590;28;20072;-68
2024/01/02 02:20:40;;;;;;;1.95;0.45;;;;;;;9.69;69.95;99475.22;5021612;28;20041;-68
2024/01/02 02:23:09;;;;;;;0.50;0.45;;;;;;;9.69;70.11;99447.56;5025889;28;20502;-67
2024/01/02 02:25:37;;;;;;;1.63;0.50;;;;;;;9.68;70.10;99452.13;5019440;28;20092;-68
2024/01/02 02:28:05;;;;;;;1.50;0.68;;;;;;;9.70;70.01;99451.88;5020172;28;20054;-67
2024/01/02 02:30:34;;;;;;;2.17;0.57;;;;;;;9.70;70.25;99433.91;5012563;28;20074;-67
2024/01/02 02:33:02;;;;;;;1.88;0.77;;;;;;;9.68;69.97;99427.19;5021117;28;20054;-67
2024/01/02 02:35:30;;;;;;;1.20;0.50;;;;;;;9.67;70.08;99426.38;5021162;28;20053;-68
2024/01/02 02:37:58;;;;;;;0.30;0.30;;;;;;;9.67;70.01;99410.25;5019964;28;20077;-67
2024/01/02 02:40:28;;;;;;;0.98;0.50;;;;;;;9.70;69.82;99409.75;5007791;28;20060;-67
2024/01/02 02:42:56;;;;;;;0.68;0.50;;;;;;;9.70;69.76;99406.28;5020232;28;20042;-68
2024/01/02 02:45:24;;;;;;;1.95;0.60;;;;;;;9.71;69.83;99386.44;5012805;28;20103;-66
2024/01/02 02:47:52;;;;;;;1.15;0.50;;;;;;;9.71;69.68;99379.19;5019080;28;20063;-67
2024/01/02 02:50:20;;;;;;;0.82;0.50;;;;;;;9.72;70.22;99371.97;5017301;28;20056;-67
2024/01/02 02:52:48;;;;;;;0.30;0.30;;;;;;;9.71;69.90;99379.19;5008495;28;20048;-67
2024/01/02 02:55:16;;;;;;;1.25;0.50;;;;;;;9.72;70.44;99378.13;5002478;28;20057;-67
2024/01/02 02:57:45;;;;;;;0.30;0.30;;;;;;;9.71;69.89;99371.16;5015279;28;20118;-67
2024/01/02 03:00:13;;;;;;;0.90;0.50;;;;;;;9.72;70.00;99353.19;5019756;28;20050;-67
2024/01/02 03:02:41;;;;;;;0.60;0.40;;;;;;;9.71;70.23;99328.22;5020096;28;20050;-67
2024/01/02 03:05:10;;;;;;;1.20;0.60;;;;;;;9.73;70.28;99315.38;5011040;28;20050;-67
2024/01/02 03:07:38;;;;;;;0.75;0.30;;;;;;;9.72;70.37;99305.69;5012006;28;20061;-68
2024/01/02 03:10:06;;;;;;;0.95;0.30;;;;;;;9.73;70.42;99301.16;5017794;28;20075;-69
2024/01/02 03:12:34;;;;;;;3.15;0.52;;;;;;;9.72;70.54;99294.97;5015166;28;20123;-69
2024/01/02 03:15:04;;;;;;;0.47;0.40;;;;;;;9.72;70.25;99280.75;5007425;28;20047;-68
2024/01/02 03:17:32;;;;;;;1.40;0.70;;;;;;;9.73;70.46;99268.94;5016349;28;20482;-69
2024/01/02 03:20:00;;;;;;;1.33;0.57;;;;;;;9.72;70.42;99260.09;5022800;28;20046;-68
2024/01/02 03:22:28;;;;;;;0.40;0.32;;;;;;;9.74;70.26;99257.16;5020497;28;20071;-70
2024/01/02 03:24:56;;;;;;;1.65;0.40;;;;;;;9.75;70.21;99242.69;5022248;28;20136;-68
2024/01/02 03:27:24;;;;;;;0.43;0.30;;;;;;;9.72;70.27;99241.31;5007394;28;20047;-68
2024/01/02 03:29:51;;;;;;;0.45;0.35;;;;;;;9.72;70.63;99235.94;5014910;28;20046;-68
2024/01/02 03:32:21;;;;;;;0.73;0.35;;;;;;;9.72;70.65;99227.09;5023584;28;20102;-68
2024/01/02 03:34:50;;;;;;;0.75;0.55;;;;;;;9.72;70.76;99224.41;5030234;28;20053;-69
2024/01/02 03:37:18;;;;;;;0.47;0.35;;;;;;;9.72;70.40;99219.84;5035697;28;20076;-68
2024/01/02 03:39:46;;;;;;;0.20;0.20;;;;;;;9.74;70.91;99209.69;5038089;28;20053;-67
2024/01/02 03:42:14;;;;;;;0.20;0.20;;;;;;;9.72;70.52;99214.50;5024573;28;20066;-68
2024/01/02 03:44:41;;;;;;;0.95;0.30;;;;;;;9.73;70.93;99201.88;5028179;28;20054;-67
2024/01/02 03:47:09;;;;;;;0.30;0.30;;;;;;;9.72;70.87;99192.22;5028347;28;20041;-67
2024/01/02 03:49:38;;;;;;;0.43;0.40;;;;;;;9.75;71.08;99189.84;5029827;28;20491;-67
2024/01/02 03:52:06;;;;;;;0.50;0.40;;;;;;;9.74;70.81;99192.78;5018737;28;20046;-68
2024/01/02 03:54:34;;;;;;;0.30;0.30;;;;;;;9.72;71.06;99190.34;5003993;28;20492;-67
2024/01/02 03:57:02;;;;;;;0.77;0.30;;;;;;;9.72;71.14;99192.22;5003855;28;20058;-67
2024/01/02 03:59:30;;;;;;;0.20;0.20;;;;;;;9.74;71.31;99184.72;5023710;28;20041;-67
2024/01/02 04:01:58;;;;;;;0.30;0.22;;;;;;;9.74;71.49;99187.41;5023502;28;20119;-67
2024/01/02 04:04:25;;;;;;;0.40;0.40;;;;;;;9.74;71.07;99185.53;5021995;28;20052;-67
2024/01/02 04:06:55;;;;;;;0.50;0.50;;;;;;;9.73;71.48;99177.75;5026540;28;20075;-67
2024/01/02 04:09:22;;;;;;;1.33;0.32;;;;;;;9.75;71.59;99175.63;5032074;28;20058;-67
2024/01/02 04:11:50;;;;;;;0.52;0.30;;;;;;;9.76;71.05;99177.22;5025841;28;20076;-67
2024/01/02 04:14:18;;;;;;;0.35;0.35;;;;;;;9.79;71.39;99165.97;5023359;28;20050;-67
2024/01/02 04:16:46;;;;;;;0.20;0.20;;;;;;;9.81;71.55;99166.53;5021712;28;20114;-68
2024/01/02 04:19:14;;;;;;;0.30;0.30;;;;;;;9.80;71.22;99159.56;5028900;28;20053;-67
2024/01/02 04:21:42;;;;;;;0.80;0.38;;;;;;;9.78;71.52;99159.00;5008502;28;20046;-67
2024/01/02 04:24:11;;;;;;;0.20;0.20;;;;;;;9.77;71.55;99154.69;5018907;28;20062;-68
2024/01/02 04:26:39;;;;;;;0.20;0.20;;;;;;;9.76;71.55;99143.16;5023192;28;20046;-68
2024/01/02 04:29:07;;;;;;;0.43;0.30;;;;;;;9.76;71.45;99147.72;5016117;28;20070;-66
2024/01/02 04:31:35;;;;;;;1.13;0.20;;;;;;;9.76;71.91;99137.00;5017940;28;20086;-67
2024/01/02 04:34:03;;;;;;;0.98;0.38;;;;;;;9.77;71.92;99143.97;5030382;28;20057;-68
2024/01/02 04:36:31;;;;;;;0.20;0.20;;;;;;;9.78;71.87;99137.53;5022361;28;20054;-68
2024/01/02 04:38:58;;;;;;;0.38;0.20;;;;;;;9.77;72.07;99142.09;5024875;28;20045;-67
2024/01/02 04:41:28;;;;;;;0.30;0.22;;;;;;;9.77;72.43;99141.28;5033930;28;20062;-67
2024/01/02 04:43:55;;;;;;;0.20;0.20;;;;;;;9.75;72.13;99132.69;5023796;28;20049;-67
2024/01/02 04:46:23;;;;;;;0.20;0.20;;;;;;;9.77;71.86;99130.56;5022684;28;20598;-67
2024/01/02 04:48:51;;;;;;;0.20;0.20;;;;;;;9.79;72.30;99145.34;5025126;28;20053;-66
2024/01/02 04:51:19;;;;;;;0.20;0.20;;;;;;;9.78;72.36;99143.72;5021775;28;20055;-66
2024/01/02 04:53:47;;;;;;;0.30;0.30;;;;;;;9.79;72.11;99139.16;5037245;28;20054;-66
2024/01/02 04:56:14;;;;;;;0.30;0.30;;;;;;;9.79;72.18;99131.09;5017583;28;20041;-67
2024/01/02 04:58:44;;;;;;;1.08;0.30;;;;;;;9.79;72.23;99129.22;5028118;28;20049;-67
2024/01/02 05:01:11;;;;;;;0.40;0.20;;;;;;;9.79;72.30;99137.28;5026976;28;20056;-67
2024/01/02 05:03:39;;;;;;;0.20;0.20;;;;;;;9.81;72.19;99142.38;5034306;28;20073;-67
2024/01/02 05:06:08;;;;;;;0.60;0.30;;;;;;;9.83;72.52;99139.44;5019382;28;20058;-68
2024/01/02 05:08:36;;;;;;;0.70;0.20;;;;;;;9.85;72.28;99134.63;5023539;28;20072;-68
2024/01/02 05:11:04;;;;;;;0.20;0.20;;;;;;;9.83;72.45;99137.56;5006534;28;20046;-68
2024/01/02 05:13:32;;;;;;;0.20;0.20;;;;;;;9.83;72.55;99142.13;5007362;28;20046;-67
2024/01/02 05:16:01;;;;;;;0.20;0.20;;;;;;;9.84;72.80;99143.75;5006480;28;20045;-67
2024/01/02 05:18:29;;;;;;;0.30;0.30;;;;;;;9.83;72.41;99132.22;5018552;28;20414;-67
2024/01/02 05:20:57;;;;;;;0.20;0.20;;;;;;;9.85;72.47;99154.22;5021590;28;20135;-67
2024/01/02 05:23:25;;;;;;;0.20;0.20;;;;;;;9.86;72.94;99146.97;5026538;28;20110;-68
2024/01/02 05:25:53;;;;;;;0.30;0.30;;;;;;;9.87;72.64;99136.00;5026482;28;20054;-67
2024/01/02 05:28:20;;;;;;;0.43;0.30;;;;;;;9.87;73.02;99144.03;5017561;28;20118;-67
2024/01/02 05:30:48;;;;;;;0.17;0.17;;;;;;;9.88;72.93;99151.03;5022004;28;20049;-67
2024/01/02 05:33:17;;;;;;;0.17;0.17;;;;;;;9.87;72.81;99157.44;5021492;28;20114;-67
2024/01/02 05:35:45;;;;;;;0.25;0.25;;;;;;;9.91;73.23;99145.13;5018366;28;20053;-67
2024/01/02 05:38:13;;;;;;;0.22;0.22;;;;;;;9.92;73.25;99135.22;5015061;28;20054;-67
2024/01/02 05:40:41;;;;;;;0.20;0.20;;;;;;;9.94;73.37;99141.13;5021888;28;20049;-67
2024/01/02 05:43:09;;;;;;;0.20;0.20;;;;;;;9.96;73.63;99136.31;5021886;28;20067;-67
2024/01/02 05:45:36;;;;;;;0.25;0.25;;;;;;;9.95;73.12;99142.75;5014221;28;20082;-67
2024/01/02 05:48:05;;;;;;;0.32;0.28;;;;;;;9.96;73.58;99142.47;5026180;28;20117;-67
2024/01/02 05:50:35;;;;;;;0.63;0.30;;;;;;;9.97;73.48;99137.94;5009854;28;20068;-67
2024/01/02 05:53:03;;;;;;;0.20;0.20;;;;;;;9.98;73.54;99151.09;5020692;28;20132;-67
2024/01/02 05:55:31;;;;;;;0.20;0.20;;;;;;;10.00;73.65;99148.13;5029278;28;20052;-67
2024/01/02 05:57:58;;;;;;;0.55;0.38;;;;;;;10.00;73.47;99153.50;5011519;28;20065;-65
2024/01/02 06:00:26;;;;;;;0.30;0.30;;;;;;;10.01;73.60;99165.84;5031954;28;20074;-67
2024/01/02 06:02:55;;;;;;;0.20;0.20;;;;;;;10.00;73.73;99159.69;5034380;28;20041;-67
2024/01/02 06:05:23;;;;;;;0.43;0.30;;;;;;;10.02;74.04;99172.84;5022600;28;20045;-67
2024/01/02 06:07:53;;;;;;;0.40;0.30;;;;;;;10.03;73.93;99180.63;5022220;28;20132;-66
2024/01/02 06:10:20;;;;;;;0.20;0.20;;;;;;;10.03;73.99;99172.59;5021765;28;20053;-67
2024/01/02 06:12:48;;;;;;;0.47;0.25;;;;;;;10.08;74.21;99177.97;5025258;28;20053;-66
2024/01/02 06:15:16;;;;;;;0.30;0.30;;;;;;;10.08;74.31;99179.88;5025236;28;20072;-67
2024/01/02 06:17:46;;;;;;;0.20;0.20;;;;;;;10.08;73.84;99179.88;5021429;28;20091;-63
2024/01/02 06:20:14;;;;;;;0.20;0.20;;;;;;;10.07;73.95;99168.31;5015065;28;20156;-63
2024/01/02 06:22:42;;;;;;;0.20;0.20;;;;;;;10.08;74.22;99186.03;5009887;28;20054;-65
2024/01/02 06:25:11;;;;;;;0.20;0.20;;;;;;;10.08;74.63;99204.03;5023303;28;20134;-66
2024/01/02 06:27:40;;;;;;;0.35;0.35;;;;;;;10.08;74.91;99196.78;5015562;28;20046;-65
2024/01/02 06:30:08;;;;;;;0.68;0.32;;;;;;;10.08;74.86;99199.47;5027176;28;20107;-66
2024/01/02 06:32:36;;;;;;;0.30;0.30;;;;;;;10.09;74.77;99213.69;5039722;28;20053;-62
2024/01/02 06:35:05;;;;;;;0.22;0.22;;;;;;;10.11;74.54;99222.28;5032400;28;20053;-65
2024/01/02 06:37:33;;;;;;;0.20;0.20;;;;;;;10.12;74.86;99229.28;5027920;28;20060;-66
2024/01/02 06:40:00;;;;;;;0.30;0.30;;;;;;;10.13;74.98;99216.66;5031173;28;20052;-71
2024/01/02 06:42:29;;;;;;;0.57;0.40;;;;;;;10.13;75.68;99217.47;5026049;28;20106;-67
2024/01/02 06:44:57;;;;;;;0.20;0.20;;;;;;;10.12;74.99;99207.81;5026054;28;20049;-67
2024/01/02 06:47:25;;;;;;;0.40;0.38;;;;;;;10.11;75.37;99216.91;4654743;28;10000498;-65
2024/01/02 06:49:53;;;;;;;0.50;0.50;;;;;;;10.11;75.50;99220.41;5025633;28;20075;-66
2024/01/02 06:52:21;;;;;;;0.68;0.40;;;;;;;10.12;75.35;99221.22;5023148;28;20050;-66
2024/01/02 06:54:49;;;;;;;0.30;0.30;;;;;;;10.12;75.73;99221.22;5025724;28;20045;-66
2024/01/02 06:57:17;;;;;;;0.30;0.30;;;;;;;10.15;75.52;99218.03;5014121;28;20391;-66
2024/01/02 06:59:46;;;;;;;1.15;0.50;;;;;;;10.15;75.52;99223.38;5020392;28;20095;-69
2024/01/02 07:02:14;;;;;;;0.30;0.30;;;;;;;10.17;74.91;99232.00;5025771;28;20113;-68
2024/01/02 07:04:42;;;;;;;0.45;0.40;;;;;;;10.17;75.40;99233.88;5024569;28;20077;-70
2024/01/02 07:07:10;;;;;;;0.40;0.40;;;;;;;10.17;75.32;99239.25;5009368;28;20648;-69
2024/01/02 07:09:38;;;;;;;2.05;0.43;;;;;;;10.17;75.57;99247.28;5012717;28;20152;-69
2024/01/02 07:12:06;;;;;;;1.85;0.60;;;;;;;10.17;74.98;99250.78;5018592;28;20046;-68
2024/01/02 07:14:37;;;;;;;0.40;0.40;;;;;;;10.18;75.22;99260.47;5023828;28;20113;-68
2024/01/02 07:17:07;;;;;;;1.95;0.60;;;;;;;10.20;75.25;99260.22;5017934;28;20134;-67
2024/01/02 07:19:35;;;;;;;1.50;0.73;;;;;;;10.19;75.15;99255.91;5030851;28;20149;-67
2024/01/02 07:22:03;;;;;;;3.80;0.60;;;;;;;10.22;75.39;99260.78;5027941;28;20042;-67
2024/01/02 07:24:31;;;;;;;1.73;0.63;;;;;;;10.21;75.08;99248.44;5023786;28;20058;-69
2024/01/02 07:26:58;;;;;;;0.55;0.55;;;;;;;10.20;75.32;99252.19;5015488;28;20054;-68
2024/01/02 07:29:26;;;;;;;1.52;0.90;;;;;;;10.22;74.80;99258.09;5012057;28;20281;-67
2024/01/02 07:31:54;;;;;;;1.58;0.88;;;;;;;10.23;74.97;99262.41;5015022;28;20111;-68
2024/01/02 07:34:24;;;;;;;0.90;0.60;;;;;;;10.25;75.22;99277.19;5019254;28;20073;-68
2024/01/02 07:36:52;;;;;;;0.95;0.77;;;;;;;10.24;74.90;99270.19;5015838;28;20396;-68
2024/01/02 07:39:20;;;;;;;0.88;0.80;;;;;;;10.24;75.02;99275.56;5019872;28;20083;-68
2024/01/02 07:41:48;;;;;;;1.27;0.80;;;;;;;10.24;75.50;99275.56;5013445;28;20054;-68
2024/01/02 07:44:16;;;;;;;1.25;0.82;;;;;;;10.25;75.23;99274.50;5018862;28;20050;-69
2024/01/02 07:46:44;;;;;;;2.63;1.13;;;;;;;10.26;75.14;99276.13;5018180;28;20284;-68
2024/01/02 07:49:12;;;;;;;1.08;0.85;;;;;;;10.28;75.19;99275.84;5017979;28;20083;-68
2024/01/02 07:51:41;;;;;;;2.75;1.20;;;;;;;10.28;75.29;99289.28;5018847;28;20049;-68
2024/01/02 07:54:09;;;;;;;2.47;1.20;;;;;;;10.28;74.97;99295.47;5018266;28;20115;-68
2024/01/02 07:56:36;;;;;;;2.08;1.00;;;;;;;10.29;75.02;99291.72;5015914;28;20050;-69
2024/01/02 07:59:04;;;;;;;3.65;1.00;;;;;;;10.36;75.10;99288.81;5020153;28;20050;-69
2024/01/02 08:01:32;;;;;;;4.07;1.20;;;;;;;10.34;75.03;99297.13;5021899;28;20087;-69
2024/01/02 08:04:00;;;;;;;3.53;1.83;;;;;;;10.34;75.20;99285.56;5016150;28;20049;-67
2024/01/02 08:06:28;;;;;;;2.63;1.10;;;;;;;10.39;75.13;99296.34;5013244;28;20551;-67
2024/01/02 08:08:57;;;;;;;1.95;1.60;;;;;;;10.36;74.79;99288.81;5010680;28;20116;-67
2024/01/02 08:11:25;;;;;;;4.43;1.35;;;;;;;10.35;74.82;99300.63;5017311;28;20069;-67
2024/01/02 08:13:53;;;;;;;2.17;1.45;;;;;;;10.34;74.79;99304.38;5016933;28;20087;-67
2024/01/02 08:16:21;;;;;;;3.67;1.13;;;;;;;10.33;74.72;99305.44;5016465;28;20054;-68
2024/01/02 08:18:49;;;;;;;1.40;0.93;;;;;;;10.33;74.80;99298.19;5039120;28;20436;-67
2024/01/02 08:21:17;;;;;;;2.50;1.15;;;;;;;10.32;74.92;99301.94;5028673;28;20054;-67
2024/01/02 08:23:45;;;;;;;1.35;1.10;;;;;;;10.35;75.04;99298.75;5023514;28;20091;-68
2024/01/02 08:26:15;;;;;;;2.63;1.10;;;;;;;10.39;74.94;99304.41;5016969;28;20931;-65
2024/01/02 08:28:43;;;;;;;3.00;1.15;;;;;;;10.40;74.67;99311.38;5024679;28;20077;-66
2024/01/02 08:31:11;;;;;;;3.45;1.38;;;;;;;10.39;74.89;99313.25;5023175;28;20049;-67
2024/01/02 08:33:38;;;;;;;3.15;1.27;;;;;;;10.39;75.22;99317.81;5003907;28;20124;-68
2024/01/02 08:36:09;;;;;;;2.55;1.20;;;;;;;10.37;75.11;99315.41;5009722;28;20070;-68
2024/01/02 08:38:37;;;;;;;2.30;1.08;;;;;;;10.39;75.23;99312.47;5018076;28;20053;-68
2024/01/02 08:41:05;;;;;;;1.05;0.60;;;;;;;10.38;75.16;99308.16;5016160;28;20053;-68
2024/01/02 08:43:34;;;;;;;2.92;1.25;;;;;;;10.39;75.17;99313.25;5019233;28;20140;-68
2024/01/02 08:46:02;;;;;;;1.38;1.02;;;;;;;10.43;75.25;99308.16;5012063;28;20054;-68
2024/01/02 08:48:30;;;;;;;2.47;1.00;;;;;;;10.46;75.13;99315.69;5016289;28;20065;-68
2024/01/02 08:50:58;;;;;;;2.38;1.27;;;;;;;10.46;75.03;99309.50;5014853;28;20050;-68
2024/01/02 08:53:25;;;;;;;4.00;1.30;;;;;;;10.46;74.97;99312.19;5004116;28;20046;-67
2024/01/02 08:55:53;;;;;;;1.33;1.10;;;;;;;10.46;74.85;99314.88;5017828;28;20064;-68
2024/01/02 08:58:21;;;;;;;1.48;1.00;;;;;;;10.45;74.97;99308.72;5005174;28;20050;-70
2024/01/02 09:00:50;;;;;;;1.25;0.90;;;;;;;10.44;75.02;99305.22;5019699;28;20111;-67
2024/01/02 09:03:18;;;;;;;2.55;1.17;;;;;;;10.51;75.06;99304.19;5016899;28;20045;-67
2024/01/02 09:05:46;;;;;;;1.92;0.90;;;;;;;10.63;74.55;99313.66;5014338;28;20057;-67
2024/01/02 09:08:14;;;;;;;1.85;0.90;;;;;;;10.82;74.06;99313.22;5017139;28;20057;-67
2024/01/02 09:10:43;;;;;;;0.80;0.80;;;;;;;10.99;73.25;99305.78;5013987;28;20054;-67
2024/01/02 09:13:13;;;;;;;1.25;0.70;;;;;;;11.15;72.75;99298.59;5020680;28;20052;-67
2024/01/02 09:15:41;;;;;;;2.00;0.85;;;;;;;11.33;72.06;99287.34;5019506;28;20407;-67
2024/01/02 09:18:10;;;;;;;2.03;0.82;;;;;;;11.54;71.51;99277.44;5012179;28;20046;-67
2024/01/02 09:20:39;;;;;;;1.58;0.70;;;;;;;11.70;70.71;99277.22;5001668;28;20097;-67
2024/01/02 09:23:07;;;;;;;1.02;0.68;;;;;;;11.82;70.41;99276.97;5016132;28;20050;-67
2024/01/02 09:25:40;;;;;;;1.25;1.15;;;;;;;11.99;69.51;99272.16;5013123;28;20054;-66
2024/01/02 09:28:12;;;;;;;1.48;0.80;;;;;;;12.14;69.07;99265.09;5019388;28;20049;-67
2024/01/02 09:30:45;;;;;;;1.45;0.88;;;;;;;12.24;68.88;99257.81;5019046;28;20085;-66
2024/01/02 09:33:15;;;;;;;1.35;0.70;;;;;;;12.33;68.63;99260.78;5010531;28;20065;-67
2024/01/02 09:35:43;;;;;;;0.90;0.57;;;;;;;12.39;68.48;99248.91;5026806;28;20125;-66
2024/01/02 09:38:11;;;;;;;1.63;0.85;;;;;;;12.47;68.33;99242.97;5017489;28;20050;-66
2024/01/02 09:40:58;;;;;;;1.95;0.70;;;;;;;12.52;67.80;99239.44;5007891;28;20571;-67
2024/01/02 09:43:39;;;;;;;2.80;0.65;;;;;;;12.54;68.03;99238.09;5012696;28;20144;-66
2024/01/02 09:46:30;;;;;;;0.68;0.50;;;;;;;12.57;67.44;99242.94;5017184;28;20119;-66
2024/01/02 09:49:18;;;;;;;0.43;0.40;;;;;;;12.64;67.49;99250.72;5012478;28;20700;-67
2024/01/02 09:52:00;;;;;;;1.00;0.70;;;;;;;12.66;67.74;99235.09;5015807;28;20046;-67
2024/01/02 09:54:38;;;;;;;2.38;0.70;;;;;;;12.68;67.52;99235.63;5012983;28;20042;-68
2024/01/02 09:57:14;;;;;;;2.67;0.40;;;;;;;12.70;67.50;99236.16;5015890;28;20057;-66
2024/01/02 09:59:59;;;;;;;0.40;0.40;;;;;;;12.69;67.47;99224.56;5016962;28;20442;-67
2024/01/02 10:02:46;;;;;;;0.32;0.32;;;;;;;12.75;67.55;99230.75;5022584;28;20049;-68
2024/01/02 10:05:22;;;;;;;1.92;0.80;;;;;;;12.74;67.27;99233.72;5016179;28;20050;-70
2024/01/02 10:08:11;;;;;;;0.82;0.52;;;;;;;12.68;67.42;99236.44;5013792;28;20049;-68
2024/01/02 10:10:51;;;;;;;2.33;0.70;;;;;;;12.49;68.72;99232.72;5022395;28;20054;-68
2024/01/02 10:13:24;;;;;;;1.40;1.05;;;;;;;12.30;69.32;99242.47;5020919;28;20049;-65
2024/01/02 10:16:06;;;;;;;1.67;0.73;;;;;;;12.14;70.15;99246.25;5006339;28;20046;-66
2024/01/02 10:18:54;;;;;;;1.45;0.80;;;;;;;11.99;70.28;99244.41;5013366;28;20053;-66
2024/01/02 10:21:29;;;;;;;1.63;0.95;;;;;;;11.83;70.95;99235.53;5020145;28;20418;-66
2024/01/02 10:24:07;;;;;;;2.47;0.52;;;;;;;11.74;71.18;99229.84;5020837;28;20115;-66
2024/01/02 10:26:40;;;;;;;0.60;0.60;;;;;;;11.67;71.81;99226.63;5005133;28;20122;-65
2024/01/02 10:29:17;;;;;;;1.58;1.17;;;;;;;11.62;72.22;99223.13;5012798;28;20050;-65
2024/01/02 10:31:49;;;;;;;;;;;;;;;11.59;72.28;99221.75;5011789;28;21700;-68
2024/01/02 10:34:26;;;;;;;1.23;0.82;;;;;;;11.58;72.50;99220.16;5010315;28;19925;-67
2024/01/02 10:36:57;;;;;;;1.27;0.70;;;;;;;11.53;72.41;99213.97;5007040;28;20610;-68
2024/01/02 10:39:34;;;;;;;0.45;0.45;;;;;;;11.60;72.06;99212.63;5015646;28;20053;-68
2024/01/02 10:42:26;;;;;;;0.63;0.40;;;;;;;11.55;72.74;99211.81;5019726;28;20066;-67
2024/01/02 10:45:11;;;;;;;0.57;0.50;;;;;;;11.58;73.15;99208.59;5011929;28;20042;-68
2024/01/02 10:48:05;;;;;;;0.55;0.50;;;;;;;11.84;74.23;99202.16;5010759;28;20043;-67
2024/01/02 10:50:45;;;;;;;1.13;0.50;;;;;;;11.68;72.73;99190.56;5011959;28;20109;-68
2024/01/02 10:53:32;;;;;;;1.80;0.70;;;;;;;11.57;72.88;99204.28;5012016;28;20050;-67
2024/01/02 10:56:07;;;;;;;0.63;0.40;;;;;;;11.48;75.10;99201.31;5022883;28;20046;-65
2024/01/02 10:58:42;;;;;;;1.55;0.50;;;;;;;11.57;73.86;99183.56;5011732;28;20050;-69
2024/01/02 11:01:14;;;;;;;0.50;0.50;;;;;;;11.72;72.99;99197.00;5018260;28;20049;-72
2024/01/02 11:03:54;;;;;;;1.55;0.65;;;;;;;11.93;72.34;99184.38;5015317;28;20082;-67
2024/01/02 11:06:32;;;;;;;0.50;0.50;;;;;;;12.16;71.73;99190.22;5016574;28;20054;-68
2024/01/02 11:09:08;;;;;;;1.05;0.40;;;;;;;12.31;71.16;99187.50;5015726;28;20042;-68
2024/01/02 11:11:39;;;;;;;0.57;0.50;;;;;;;12.46;70.63;99176.69;5020227;28;20410;-69
2024/01/02 11:14:10;;;;;;;0.45;0.45;;;;;;;12.62;69.76;99167.47;5018912;28;20143;-67
2024/01/02 11:16:44;;;;;;;0.95;0.68;;;;;;;12.74;70.09;99164.44;5027279;28;20064;-68
2024/01/02 11:19:16;;;;;;;0.55;0.50;;;;;;;12.89;69.18;99155.47;5019916;28;20494;-67
2024/01/02 11:21:52;;;;;;;0.50;0.50;;;;;;;13.04;68.43;99150.78;5018493;28;20061;-68
2024/01/02 11:24:23;;;;;;;0.75;0.50;;;;;;;13.34;68.12;99146.31;5018547;28;20471;-65
2024/01/02 11:26:52;;;;;;;1.50;0.70;;;;;;;13.26;67.60;99146.91;5028693;28;20071;-66
2024/01/02 11:29:22;;;;;;;0.65;0.40;;;;;;;13.11;68.22;99138.88;5018608;28;20046;-67
2024/01/02 11:31:53;;;;;;;0.65;0.50;;;;;;;12.97;68.91;99131.41;5023108;28;20057;-67
2024/01/02 11:34:48;;;;;;;0.77;0.60;;;;;;;12.68;69.32;99125.91;5019170;28;20484;-67
2024/01/02 11:37:28;;;;;;;0.73;0.50;;;;;;;12.48;70.33;99123.31;5017933;28;20064;-73
2024/01/02 11:40:08;;;;;;;0.45;0.45;;;;;;;12.35;70.78;99118.53;5015311;28;20050;-71
2024/01/02 11:42:52;;;;;;;0.35;0.35;;;;;;;12.22;70.93;99106.47;5017723;28;20057;-70
2024/01/02 11:45:21;;;;;;;1.20;0.43;;;;;;;12.14;71.59;99106.22;5018231;28;20045;-70
2024/01/02 11:47:59;;;;;;;0.45;0.40;;;;;;;12.09;71.62;99106.25;5030126;28;20144;-71
2024/01/02 11:50:39;;;;;;;1.13;0.50;;;;;;;12.03;72.36;99098.19;5028463;28;20554;-70